Time;durP1;ratioP1;P1;durP2;ratioP2;P2;SDS_P1;SDS_P2;PMS_P1;PMS_P2;Temp;Humidity;BMP_temperature;BMP_pressure;BME280_temperature;BME280_humidity;BME280_pressure;Samples;Min_cycle;Max_cycle;Signal;HPM_P1;HPM_P2
2022/03/20 00:00:07;;;;;;;;;;;3.80;46.50;;;;;;5020794;28;20392;-80
2022/03/20 00:02:33;;;;;;;;;;;2.40;45.70;;;;;;5021939;28;19913;-79
2022/03/20 00:05:00;;;;;;;;;;;2.40;46.00;;;;;;5020378;28;19909;-80
2022/03/20 00:07:26;;;;;;;;;;;2.40;46.20;;;;;;5019859;28;19921;-80
2022/03/20 00:09:52;;;;;;;;;;;2.30;46.20;;;;;;5020472;28;19975;-78
2022/03/20 00:12:18;;;;;;;;;;;2.30;46.40;;;;;;5021533;28;20186;-80
2022/03/20 00:14:44;;;;;;;;;;;2.20;46.20;;;;;;5020740;28;19909;-80
2022/03/20 00:17:10;;;;;;;;;;;2.10;46.30;;;;;;5021762;28;19916;-80
2022/03/20 00:19:35;;;;;;;;;;;2.20;46.40;;;;;;5021274;28;19919;-79
2022/03/20 00:22:01;;;;;;;;;;;2.10;46.30;;;;;;5021728;28;20034;-79
2022/03/20 00:24:27;;;;;;;;;;;2.00;46.40;;;;;;5021554;28;19910;-79
2022/03/20 00:26:56;;;;;;;;;;;2.00;45.80;;;;;;5020259;28;19918;-79
2022/03/20 00:29:25;;;;;;;;;;;1.90;45.70;;;;;;5021985;28;20391;-79
2022/03/20 00:31:51;;;;;;;;;;;1.90;45.40;;;;;;5021291;28;19909;-79
2022/03/20 00:34:16;;;;;;;;;;;2.20;45.70;;;;;;5019580;28;20510;-80
2022/03/20 00:36:42;;;;;;;;;;;1.90;45.50;;;;;;5021046;28;19913;-80
2022/03/20 00:39:07;;;;;;;;;;;1.90;45.10;;;;;;5021374;28;20292;-80
2022/03/20 00:41:33;;;;;;;;;;;1.90;45.10;;;;;;5021140;28;20403;-79
2022/03/20 00:44:01;;;;;;;;;;;1.80;45.40;;;;;;5021301;28;19909;-79
2022/03/20 00:46:28;;;;;;;;;;;1.70;45.20;;;;;;5020904;28;19917;-80
2022/03/20 00:48:54;;;;;;;;;;;1.80;45.70;;;;;;5020863;28;20307;-79
2022/03/20 00:51:20;;;;;;;;;;;1.70;46.00;;;;;;5019753;28;20362;-79
2022/03/20 00:53:46;;;;;;;;;;;1.60;46.40;;;;;;5020840;28;19913;-80
2022/03/20 00:56:12;;;;;;;;;;;1.50;46.30;;;;;;5021257;28;19976;-80
2022/03/20 00:58:38;;;;;;;;;;;1.50;46.40;;;;;;5021324;28;19964;-78
2022/03/20 01:01:04;;;;;;;;;;;1.40;46.80;;;;;;5021378;28;20303;-80
2022/03/20 01:03:30;;;;;;;;;;;1.50;47.00;;;;;;5019894;28;19971;-79
2022/03/20 01:05:55;;;;;;;;;;;2.60;47.90;;;;;;5019506;28;20485;-79
2022/03/20 01:08:21;;;;;;;;;;;1.40;47.00;;;;;;5020861;28;19921;-80
2022/03/20 01:10:47;;;;;;;;;;;1.30;47.00;;;;;;5020033;28;19916;-80
2022/03/20 01:13:12;;;;;;;;;;;1.20;47.00;;;;;;5019672;28;19916;-80
2022/03/20 01:15:38;;;;;;;;;;;1.20;47.50;;;;;;5021794;28;19909;-80
2022/03/20 01:18:03;;;;;;;;;;;1.20;46.90;;;;;;5023896;28;20415;-79
2022/03/20 01:20:29;;;;;;;;;;;1.20;47.10;;;;;;5023780;28;19977;-80
2022/03/20 01:22:55;;;;;;;;;;;1.30;47.20;;;;;;5021493;28;19913;-79
2022/03/20 01:25:20;;;;;;;;;;;1.20;46.70;;;;;;5020808;28;20078;-79
2022/03/20 01:27:46;;;;;;;;;;;1.10;47.10;;;;;;5019547;28;19917;-80
2022/03/20 01:30:11;;;;;;;;;;;1.10;47.30;;;;;;5020868;28;20410;-79
2022/03/20 01:32:37;;;;;;;;;;;1.10;47.80;;;;;;5020742;28;20016;-79
2022/03/20 01:35:03;;;;;;;;;;;1.10;47.80;;;;;;5019718;28;19959;-80
2022/03/20 01:37:28;;;;;;;;;;;1.00;47.70;;;;;;5026852;28;20109;-80
2022/03/20 01:39:54;;;;;;;;;;;1.00;48.10;;;;;;5023390;28;20008;-79
2022/03/20 01:42:21;;;;;;;;;;;0.90;47.70;;;;;;5019156;28;20008;-79
2022/03/20 01:44:47;;;;;;;;;;;2.80;49.60;;;;;;5020184;28;19909;-79
2022/03/20 01:47:13;;;;;;;;;;;0.90;48.50;;;;;;5018890;28;19917;-79
2022/03/20 01:49:39;;;;;;;;;;;1.00;48.40;;;;;;5020235;28;20125;-79
2022/03/20 01:52:10;;;;;;;;;;;3.00;49.10;;;;;;5020084;28;19909;-79
2022/03/20 01:54:36;;;;;;;;;;;0.90;48.00;;;;;;5019809;28;20002;-79
2022/03/20 01:57:02;;;;;;;;;;;0.90;48.60;;;;;;5019816;28;19980;-79
2022/03/20 01:59:27;;;;;;;;;;;0.90;48.50;;;;;;5019317;28;20105;-79
2022/03/20 02:01:53;;;;;;;;;;;0.90;48.50;;;;;;5019892;28;20391;-79
2022/03/20 02:04:18;;;;;;;;;;;0.80;48.70;;;;;;5019673;28;19913;-79
2022/03/20 02:06:44;;;;;;;;;;;0.80;48.80;;;;;;5019632;28;19921;-79
2022/03/20 02:09:10;;;;;;;;;;;0.80;48.90;;;;;;5020324;28;19913;-79
2022/03/20 02:11:36;;;;;;;;;;;0.80;49.10;;;;;;5019589;28;20106;-79
2022/03/20 02:14:02;;;;;;;;;;;0.80;49.10;;;;;;5020278;28;19992;-79
2022/03/20 02:16:28;;;;;;;;;;;0.90;48.80;;;;;;5020089;28;20415;-79
2022/03/20 02:18:54;;;;;;;;;;;0.80;49.00;;;;;;5017964;28;19913;-79
2022/03/20 02:21:35;;;;;;;;;;;0.70;49.00;;;;;;5019780;28;20136;-79
2022/03/20 02:24:01;;;;;;;;;;;0.60;49.00;;;;;;5018217;28;19999;-79
2022/03/20 02:26:26;;;;;;;;;;;0.70;49.10;;;;;;5019855;28;20412;-79
2022/03/20 02:28:52;;;;;;;;;;;0.60;49.60;;;;;;5020486;28;19917;-79
2022/03/20 02:31:17;;;;;;;;;;;2.10;50.60;;;;;;5029513;28;20031;-80
2022/03/20 02:33:43;;;;;;;;;;;0.50;50.00;;;;;;5031011;28;20000;-80
2022/03/20 02:36:09;;;;;;;;;;;0.50;50.10;;;;;;5031370;28;19913;-79
2022/03/20 02:38:34;;;;;;;;;;;0.50;50.30;;;;;;5032269;28;20030;-79
2022/03/20 02:41:14;;;;;;;;;;;-2.20;49.30;;;;;;5023281;28;19920;-80
2022/03/20 02:43:52;;;;;;;;;;;0.50;51.00;;;;;;5020927;28;19916;-79
2022/03/20 02:46:17;;;;;;;;;;;2.30;52.50;;;;;;5020162;28;19970;-79
2022/03/20 02:48:45;;;;;;;;;;;0.30;52.10;;;;;;5020410;28;19917;-79
2022/03/20 02:51:11;;;;;;;;;;;0.30;51.90;;;;;;5019834;28;19920;-79
2022/03/20 02:53:36;;;;;;;;;;;1.90;52.80;;;;;;5019665;28;20395;-79
2022/03/20 02:56:02;;;;;;;;;;;0.20;52.10;;;;;;5022158;28;20016;-79
2022/03/20 02:58:28;;;;;;;;;;;1.60;53.70;;;;;;5024317;28;19909;-79
2022/03/20 03:00:55;;;;;;;;;;;0.20;52.80;;;;;;5023557;28;19916;-79
2022/03/20 03:03:21;;;;;;;;;;;0.10;52.80;;;;;;5028127;28;20031;-79
2022/03/20 03:05:47;;;;;;;;;;;0.10;52.80;;;;;;5030500;28;19919;-80
2022/03/20 03:10:57;;;;;;;;;;;0.10;53.10;;;;;;5030101;28;19916;-79
2022/03/20 03:13:24;;;;;;;;;;;0.10;53.40;;;;;;5023531;28;19909;-79
2022/03/20 03:15:53;;;;;;;;;;;0.10;53.80;;;;;;5023903;28;19915;-79
2022/03/20 03:18:20;;;;;;;;;;;0.00;54.10;;;;;;5022229;28;19909;-79
2022/03/20 03:20:46;;;;;;;;;;;0.00;54.70;;;;;;5023071;28;20396;-79
2022/03/20 03:23:12;;;;;;;;;;;-0.10;54.60;;;;;;5022597;28;19919;-78
2022/03/20 03:25:40;;;;;;;;;;;-0.10;54.50;;;;;;5022376;28;20343;-79
2022/03/20 03:28:06;;;;;;;;;;;-0.10;54.50;;;;;;5022481;28;20229;-79
2022/03/20 03:30:32;;;;;;;;;;;-0.20;54.60;;;;;;5022658;28;19937;-79
2022/03/20 03:32:58;;;;;;;;;;;-0.20;54.70;;;;;;5022600;28;19979;-79
2022/03/20 03:35:42;;;;;;;;;;;-0.20;54.90;;;;;;5022445;28;19913;-79
2022/03/20 03:38:15;;;;;;;;;;;-0.20;55.00;;;;;;5023132;28;20201;-79
2022/03/20 03:40:41;;;;;;;;;;;-0.30;54.90;;;;;;5022657;28;20392;-79
2022/03/20 03:43:07;;;;;;;;;;;-0.20;55.60;;;;;;5023286;28;19992;-79
2022/03/20 03:45:33;;;;;;;;;;;-0.20;55.00;;;;;;5025615;28;20047;-79
2022/03/20 03:47:59;;;;;;;;;;;-0.20;54.90;;;;;;5028207;28;19924;-80
2022/03/20 03:50:25;;;;;;;;;;;-0.20;54.90;;;;;;5024021;28;19920;-79
2022/03/20 03:52:51;;;;;;;;;;;-0.10;55.00;;;;;;5023240;28;19909;-79
2022/03/20 03:55:17;;;;;;;;;;;-0.30;55.00;;;;;;5022237;28;19921;-79
2022/03/20 03:57:47;;;;;;;;;;;-0.40;56.00;;;;;;5022194;28;20473;-79
2022/03/20 04:00:13;;;;;;;;;;;-0.40;56.10;;;;;;5022664;28;19909;-79
2022/03/20 04:02:39;;;;;;;;;;;-0.40;56.50;;;;;;5021725;28;19949;-79
2022/03/20 04:05:05;;;;;;;;;;;-0.40;56.30;;;;;;5022095;28;20332;-79
2022/03/20 04:07:30;;;;;;;;;;;-0.40;56.60;;;;;;5021543;28;20042;-79
2022/03/20 04:09:56;;;;;;;;;;;-0.40;56.80;;;;;;5021466;28;19913;-79
2022/03/20 04:12:22;;;;;;;;;;;-0.40;56.80;;;;;;5021684;28;20206;-79
2022/03/20 04:14:48;;;;;;;;;;;-0.50;57.60;;;;;;5021704;28;19975;-79
2022/03/20 04:17:14;;;;;;;;;;;-0.50;57.90;;;;;;5020016;28;19909;-78
2022/03/20 04:19:40;;;;;;;;;;;0.30;58.40;;;;;;5021380;28;19959;-79
2022/03/20 04:22:06;;;;;;;;;;;-0.60;58.20;;;;;;5021497;28;19917;-80
2022/03/20 04:24:31;;;;;;;;;;;-0.70;58.40;;;;;;5021268;28;19913;-79
2022/03/20 04:26:58;;;;;;;;;;;-1.40;58.00;;;;;;5020747;28;19939;-79
2022/03/20 04:29:25;;;;;;;;;;;-0.70;58.00;;;;;;5021540;28;19967;-79
2022/03/20 04:31:54;;;;;;;;;;;-0.70;57.50;;;;;;5021641;28;19948;-79
2022/03/20 04:34:26;;;;;;;;;;;-0.80;57.90;;;;;;5021434;28;20168;-77
2022/03/20 04:36:52;;;;;;;;;;;-0.80;58.30;;;;;;5021201;28;19975;-78
2022/03/20 04:39:18;;;;;;;;;;;-0.80;59.50;;;;;;5020106;28;20009;-79
2022/03/20 04:41:46;;;;;;;;;;;-0.80;58.90;;;;;;5021362;28;19909;-79
2022/03/20 04:44:12;;;;;;;;;;;-0.90;59.00;;;;;;5021763;28;20007;-79
2022/03/20 04:46:38;;;;;;;;;;;-0.90;58.60;;;;;;5021175;28;20388;-79
2022/03/20 05:00:00;;;;;;;;;;;-0.80;56.80;;;;;;5021815;28;19959;-79
2022/03/20 05:02:26;;;;;;;;;;;-1.00;56.60;;;;;;5020518;28;20343;-78
2022/03/20 05:04:52;;;;;;;;;;;-1.00;55.10;;;;;;5019404;28;20486;-79
2022/03/20 05:07:18;;;;;;;;;;;-1.00;55.40;;;;;;5022375;28;19943;-79
2022/03/20 05:15:13;;;;;;;;;;;-0.90;56.00;;;;;;5021620;28;20329;-79
2022/03/20 05:17:38;;;;;;;;;;;-0.90;56.50;;;;;;5020494;28;20117;-79
2022/03/20 05:20:04;;;;;;;;;;;-0.90;56.60;;;;;;5020931;28;19957;-79
2022/03/20 05:22:31;;;;;;;;;;;-0.90;57.00;;;;;;5020770;28;20113;-79
2022/03/20 05:24:56;;;;;;;;;;;-0.90;56.70;;;;;;5019384;28;19909;-79
2022/03/20 05:27:22;;;;;;;;;;;-0.90;56.90;;;;;;5021070;28;20098;-79
2022/03/20 05:29:48;;;;;;;;;;;-0.90;56.50;;;;;;5021598;28;19913;-79
2022/03/20 05:32:13;;;;;;;;;;;-0.90;54.60;;;;;;5021928;28;19909;-79
2022/03/20 05:34:39;;;;;;;;;;;0.30;55.20;;;;;;5021881;28;19909;-79
2022/03/20 05:37:06;;;;;;;;;;;-0.90;54.50;;;;;;5020346;28;19916;-80
2022/03/20 05:39:33;;;;;;;;;;;-0.90;55.50;;;;;;5035511;28;19917;-79
2022/03/20 05:41:58;;;;;;;;;;;-0.40;55.60;;;;;;5034557;28;19932;-79
2022/03/20 05:44:26;;;;;;;;;;;-0.80;55.60;;;;;;5038774;28;19935;-79
2022/03/20 05:46:52;;;;;;;;;;;-0.80;55.50;;;;;;5036126;28;19913;-79
2022/03/20 05:49:24;;;;;;;;;;;-0.70;55.70;;;;;;5023384;28;19909;-79
2022/03/20 05:51:51;;;;;;;;;;;-0.70;54.60;;;;;;5022586;28;19910;-79
2022/03/20 05:54:17;;;;;;;;;;;-0.80;53.50;;;;;;5023379;28;19910;-79
2022/03/20 05:59:28;;;;;;;;;;;-0.60;53.80;;;;;;5022200;28;19916;-78
2022/03/20 06:01:53;;;;;;;;;;;-0.50;53.90;;;;;;5019989;28;20288;-78
2022/03/20 06:04:19;;;;;;;;;;;-0.40;54.20;;;;;;5020307;28;19914;-79
2022/03/20 06:06:45;;;;;;;;;;;-0.30;53.50;;;;;;5019917;28;19921;-78
2022/03/20 06:09:11;;;;;;;;;;;-0.30;53.30;;;;;;5020157;28;19963;-79
2022/03/20 06:11:37;;;;;;;;;;;0.90;53.50;;;;;;5020131;28;20468;-79
2022/03/20 06:14:04;;;;;;;;;;;-0.10;52.20;;;;;;5020331;28;19992;-78
2022/03/20 06:16:32;;;;;;;;;;;-0.10;51.10;;;;;;5020747;28;19913;-79
2022/03/20 06:18:57;;;;;;;;;;;0.00;51.80;;;;;;5024859;28;19916;-79
2022/03/20 06:21:23;;;;;;;;;;;0.10;50.00;;;;;;5027805;28;20004;-79
2022/03/20 06:23:49;;;;;;;;;;;0.20;50.50;;;;;;5027746;28;20235;-79
2022/03/20 06:26:16;;;;;;;;;;;0.30;50.20;;;;;;5025555;28;19909;-79
2022/03/20 06:28:42;;;;;;;;;;;0.40;49.30;;;;;;5021718;28;19924;-79
2022/03/20 06:31:10;;;;;;;;;;;0.50;48.60;;;;;;5023353;28;19917;-79
2022/03/20 06:33:37;;;;;;;;;;;0.50;48.00;;;;;;5023656;28;19917;-79
2022/03/20 06:36:03;;;;;;;;;;;0.60;48.80;;;;;;5023221;28;19913;-79
2022/03/20 06:38:30;;;;;;;;;;;0.70;48.50;;;;;;5022350;28;19932;-79
2022/03/20 06:40:56;;;;;;;;;;;1.10;48.00;;;;;;5023428;28;20125;-79
2022/03/20 06:43:21;;;;;;;;;;;0.90;47.50;;;;;;5023781;28;19952;-79
2022/03/20 06:45:47;;;;;;;;;;;1.70;47.60;;;;;;5021963;28;20372;-79
2022/03/20 06:48:12;;;;;;;;;;;1.00;47.30;;;;;;5022320;28;19918;-79
2022/03/20 06:50:38;;;;;;;;;;;1.10;46.60;;;;;;5023661;28;19909;-79
2022/03/20 06:53:04;;;;;;;;;;;1.20;46.10;;;;;;5023031;28;19913;-79
2022/03/20 06:55:30;;;;;;;;;;;1.70;46.20;;;;;;5022486;28;20005;-79
2022/03/20 06:57:57;;;;;;;;;;;1.50;46.10;;;;;;5024393;28;20011;-79
2022/03/20 07:00:25;;;;;;;;;;;1.60;46.50;;;;;;5022640;28;19913;-78
2022/03/20 07:03:00;;;;;;;;;;;1.70;46.10;;;;;;5023170;28;20427;-79
2022/03/20 07:05:26;;;;;;;;;;;1.80;45.30;;;;;;5024452;28;19917;-79
2022/03/20 07:07:52;;;;;;;;;;;1.90;45.10;;;;;;5023739;28;19987;-79
2022/03/20 07:10:21;;;;;;;;;;;2.10;45.20;;;;;;5023933;28;19920;-79
2022/03/20 07:12:47;;;;;;;;;;;2.20;44.60;;;;;;5022108;28;20355;-79
2022/03/20 07:15:12;;;;;;;;;;;2.30;44.30;;;;;;5022546;28;20243;-79
2022/03/20 07:17:38;;;;;;;;;;;2.40;44.30;;;;;;5022213;28;19963;-78
2022/03/20 07:20:09;;;;;;;;;;;2.40;44.00;;;;;;5022835;28;20484;-79
2022/03/20 07:22:34;;;;;;;;;;;2.50;44.10;;;;;;5022359;28;19944;-79
2022/03/20 07:29:29;;;;;;;;;;;4.40;44.00;;;;;;5024065;28;19959;-79
2022/03/20 07:30:32;;;;;;;;;;;2.90;42.40;;;;;;5025032;28;19996;-80
2022/03/20 07:32:58;;;;;;;;;;;3.10;41.40;;;;;;5023762;28;20365;-79
2022/03/20 07:35:24;;;;;;;;;;;3.40;40.50;;;;;;5023137;28;19975;-79
2022/03/20 07:37:50;;;;;;;;;;;3.50;40.50;;;;;;5023144;28;19971;-79
2022/03/20 07:40:16;;;;;;;;;;;3.60;40.10;;;;;;5023963;28;19913;-79
2022/03/20 07:42:41;;;;;;;;;;;3.70;40.20;;;;;;5025207;28;19955;-79
2022/03/20 07:45:07;;;;;;;;;;;3.90;39.90;;;;;;5025647;28;19913;-78
2022/03/20 07:47:33;;;;;;;;;;;4.00;38.90;;;;;;5024767;28;19917;-79
2022/03/20 07:49:59;;;;;;;;;;;4.10;37.20;;;;;;5023061;28;19917;-79
2022/03/20 07:52:25;;;;;;;;;;;4.10;36.60;;;;;;5023022;28;19912;-79
2022/03/20 07:54:50;;;;;;;;;;;4.20;37.30;;;;;;5023163;28;20503;-80
2022/03/20 07:57:16;;;;;;;;;;;4.30;37.20;;;;;;5023055;28;20421;-79
2022/03/20 07:59:44;;;;;;;;;;;4.50;38.10;;;;;;5024314;28;20376;-79
2022/03/20 08:02:10;;;;;;;;;;;4.60;37.70;;;;;;5025341;28;19920;-79
2022/03/20 08:04:36;;;;;;;;;;;4.70;37.20;;;;;;5030891;28;20067;-79
2022/03/20 08:07:02;;;;;;;;;;;4.90;37.00;;;;;;5031771;28;20225;-80
2022/03/20 08:09:28;;;;;;;;;;;4.90;34.60;;;;;;5026748;28;19909;-79
2022/03/20 08:11:55;;;;;;;;;;;5.00;35.20;;;;;;5026604;28;19920;-80
2022/03/20 08:14:20;;;;;;;;;;;5.00;34.50;;;;;;5026442;28;19909;-78
2022/03/20 08:16:47;;;;;;;;;;;5.10;35.30;;;;;;5025464;28;20434;-79
2022/03/20 08:19:16;;;;;;;;;;;5.30;33.90;;;;;;5025754;28;19917;-79
2022/03/20 08:21:42;;;;;;;;;;;5.50;34.30;;;;;;5025381;28;19920;-79
2022/03/20 08:24:08;;;;;;;;;;;5.80;33.20;;;;;;5023923;28;19956;-79
2022/03/20 08:26:34;;;;;;;;;;;5.80;32.50;;;;;;5023091;28;19956;-79
2022/03/20 08:29:00;;;;;;;;;;;5.90;33.60;;;;;;5022582;28;20190;-79
2022/03/20 08:31:26;;;;;;;;;;;5.90;32.20;;;;;;5026588;28;19909;-79
2022/03/20 08:33:52;;;;;;;;;;;5.90;32.10;;;;;;5027024;28;19908;-79
2022/03/20 08:36:18;;;;;;;;;;;5.90;32.70;;;;;;5027816;28;20441;-78
2022/03/20 08:38:44;;;;;;;;;;;6.10;33.80;;;;;;5027550;28;19909;-79
2022/03/20 08:41:10;;;;;;;;;;;6.10;32.70;;;;;;5030863;28;20100;-79
2022/03/20 08:43:36;;;;;;;;;;;6.20;32.40;;;;;;5031367;28;20204;-79
2022/03/20 08:46:01;;;;;;;;;;;6.40;33.20;;;;;;5033337;28;19909;-78
2022/03/20 08:48:28;;;;;;;;;;;6.40;33.10;;;;;;5035826;28;20114;-79
2022/03/20 08:50:54;;;;;;;;;;;6.50;33.40;;;;;;5035238;28;20027;-79
2022/03/20 08:53:20;;;;;;;;;;;6.60;33.10;;;;;;5035710;28;19932;-79
2022/03/20 08:55:46;;;;;;;;;;;6.70;33.70;;;;;;5034002;28;20058;-79
2022/03/20 08:58:11;;;;;;;;;;;6.80;34.10;;;;;;5033097;28;20011;-79
2022/03/20 09:00:37;;;;;;;;;;;7.00;33.60;;;;;;5032156;28;20338;-79
2022/03/20 09:03:03;;;;;;;;;;;7.10;34.00;;;;;;5028643;28;20004;-79
2022/03/20 09:05:28;;;;;;;;;;;7.30;34.10;;;;;;5027202;28;19909;-78
2022/03/20 09:07:57;;;;;;;;;;;7.30;32.70;;;;;;5025670;28;19917;-79
2022/03/20 09:10:23;;;;;;;;;;;7.30;33.70;;;;;;5024770;28;19909;-79
2022/03/20 09:12:49;;;;;;;;;;;7.40;32.80;;;;;;5024942;28;19909;-79
2022/03/20 09:15:15;;;;;;;;;;;7.50;32.50;;;;;;5025596;28;19917;-80
2022/03/20 09:20:26;;;;;;;;;;;7.60;33.20;;;;;;5024388;28;20375;-79
2022/03/20 09:22:54;;;;;;;;;;;7.90;33.60;;;;;;5025087;28;19909;-79
2022/03/20 09:25:19;;;;;;;;;;;8.10;32.10;;;;;;5025087;28;19939;-79
2022/03/20 09:27:48;;;;;;;;;;;8.20;32.30;;;;;;5025917;28;20350;-79
2022/03/20 09:30:14;;;;;;;;;;;8.30;32.20;;;;;;5022884;28;20408;-79
2022/03/20 09:32:40;;;;;;;;;;;8.40;31.80;;;;;;5025154;28;19963;-78
2022/03/20 09:35:05;;;;;;;;;;;8.50;31.40;;;;;;5028303;28;19913;-79
2022/03/20 09:37:31;;;;;;;;;;;8.60;31.70;;;;;;5027556;28;20335;-80
2022/03/20 09:39:57;;;;;;;;;;;8.60;30.50;;;;;;5028256;28;19909;-79
2022/03/20 09:42:23;;;;;;;;;;;8.50;30.80;;;;;;5025514;28;20512;-79
2022/03/20 09:44:49;;;;;;;;;;;8.50;32.30;;;;;;5023293;28;19945;-79
2022/03/20 09:47:18;;;;;;;;;;;8.70;33.20;;;;;;5022561;28;19913;-79
2022/03/20 09:49:47;;;;;;;;;;;8.80;31.60;;;;;;5020558;28;19913;-79
2022/03/20 09:52:13;;;;;;;;;;;8.90;33.40;;;;;;5021602;28;19947;-79
2022/03/20 09:54:39;;;;;;;;;;;9.00;31.70;;;;;;5022597;28;19913;-79
2022/03/20 09:57:06;;;;;;;;;;;9.20;32.10;;;;;;5020887;28;20407;-79
2022/03/20 09:59:32;;;;;;;;;;;9.20;31.00;;;;;;5024392;28;20462;-79
2022/03/20 10:02:02;;;;;;;;;;;9.30;30.70;;;;;;5023999;28;19909;-79
2022/03/20 10:04:28;;;;;;;;;;;9.50;32.50;;;;;;5006858;28;19913;-79
2022/03/20 10:06:54;;;;;;;;;;;9.50;30.90;;;;;;5023788;28;19929;-79
2022/03/20 10:09:21;;;;;;;;;;;9.50;30.30;;;;;;5025295;28;20008;-79
2022/03/20 10:11:47;;;;;;;;;;;9.50;32.10;;;;;;5024674;28;19920;-79
2022/03/20 10:14:17;;;;;;;;;;;9.70;32.50;;;;;;5023567;28;20390;-78
2022/03/20 10:16:44;;;;;;;;;;;9.80;31.00;;;;;;5026529;28;20127;-79
2022/03/20 10:19:22;;;;;;;;;;;9.90;30.40;;;;;;5029188;28;19916;-79
2022/03/20 10:21:47;;;;;;;;;;;9.90;29.90;;;;;;5021857;28;20331;-79
2022/03/20 10:24:16;;;;;;;;;;;9.90;29.60;;;;;;5021636;28;19910;-79
2022/03/20 10:26:42;;;;;;;;;;;9.80;29.50;;;;;;5021797;28;20018;-79
2022/03/20 10:29:17;;;;;;;;;;;9.80;30.00;;;;;;5022711;28;19914;-79
2022/03/20 10:31:52;;;;;;;;;;;9.70;30.80;;;;;;5022906;28;20028;-79
2022/03/20 10:34:18;;;;;;;;;;;9.90;31.20;;;;;;5024350;28;19909;-79
2022/03/20 10:36:45;;;;;;;;;;;10.10;30.90;;;;;;5024039;28;20225;-80
2022/03/20 10:39:11;;;;;;;;;;;10.20;29.30;;;;;;5022382;28;19916;-79
2022/03/20 10:41:38;;;;;;;;;;;10.00;29.90;;;;;;5022482;28;19918;-79
2022/03/20 10:44:18;;;;;;;;;;;9.80;30.30;;;;;;5023596;28;19909;-79
2022/03/20 10:46:54;;;;;;;;;;;10.00;30.10;;;;;;5021316;28;19948;-79
2022/03/20 10:49:20;;;;;;;;;;;10.30;31.40;;;;;;5022535;28;19909;-79
2022/03/20 10:51:59;;;;;;;;;;;10.60;31.10;;;;;;5021577;28;20133;-79
2022/03/20 10:54:37;;;;;;;;;;;10.70;29.80;;;;;;5021533;28;19948;-79
2022/03/20 10:57:05;;;;;;;;;;;10.80;29.90;;;;;;5022476;28;20006;-79
2022/03/20 10:59:30;;;;;;;;;;;10.80;29.40;;;;;;5024100;28;19920;-79
2022/03/20 11:01:57;;;;;;;;;;;11.00;29.30;;;;;;5021348;28;19913;-79
2022/03/20 11:04:23;;;;;;;;;;;10.90;29.00;;;;;;5020411;28;20000;-80
2022/03/20 11:06:49;;;;;;;;;;;11.00;30.20;;;;;;5019436;28;20023;-79
2022/03/20 11:09:15;;;;;;;;;;;11.20;29.90;;;;;;5020919;28;19916;-79
2022/03/20 11:11:44;;;;;;;;;;;11.20;29.20;;;;;;5026400;28;20384;-79
2022/03/20 11:14:15;;;;;;;;;;;11.30;29.50;;;;;;5027578;28;19909;-79
2022/03/20 11:16:41;;;;;;;;;;;11.30;29.50;;;;;;5022397;28;19920;-79
2022/03/20 11:19:11;;;;;;;;;;;11.30;28.60;;;;;;5026183;28;20074;-79
2022/03/20 11:21:39;;;;;;;;;;;11.40;29.00;;;;;;5027781;28;19963;-80
2022/03/20 11:24:04;;;;;;;;;;;11.50;28.80;;;;;;5028869;28;19909;-79
2022/03/20 11:26:31;;;;;;;;;;;11.50;28.60;;;;;;5030759;28;20004;-79
2022/03/20 11:28:59;;;;;;;;;;;11.60;28.20;;;;;;5030592;28;19913;-79
2022/03/20 11:31:25;;;;;;;;;;;11.70;28.90;;;;;;5028435;28;19909;-79
2022/03/20 11:33:52;;;;;;;;;;;11.90;28.70;;;;;;5030993;28;20059;-79
2022/03/20 11:36:18;;;;;;;;;;;12.00;28.50;;;;;;5032735;28;19917;-79
2022/03/20 11:39:03;;;;;;;;;;;12.20;28.30;;;;;;5031432;28;19913;-79
2022/03/20 11:41:30;;;;;;;;;;;12.30;27.60;;;;;;5034603;28;19909;-79
2022/03/20 11:44:11;;;;;;;;;;;12.20;27.20;;;;;;5033357;28;20241;-79
2022/03/20 11:46:37;;;;;;;;;;;12.10;27.10;;;;;;5036057;28;20121;-79
2022/03/20 11:49:22;;;;;;;;;;;11.50;27.70;;;;;;5037916;28;20399;-80
2022/03/20 11:52:00;;;;;;;;;;;12.50;27.60;;;;;;5041952;28;19935;-79
2022/03/20 11:54:49;;;;;;;;;;;12.80;27.40;;;;;;5041710;28;19932;-79
2022/03/20 11:57:37;;;;;;;;;;;13.10;27.60;;;;;;5033820;28;19992;-79
2022/03/20 12:00:11;;;;;;;;;;;13.20;27.40;;;;;;5027066;28;19916;-79
2022/03/20 12:02:55;;;;;;;;;;;13.20;26.50;;;;;;5011929;28;19913;-79
2022/03/20 12:05:20;;;;;;;;;;;13.50;26.90;;;;;;5009995;28;19956;-80
2022/03/20 12:07:49;;;;;;;;;;;13.40;26.00;;;;;;5010538;28;19960;-79
2022/03/20 12:10:33;;;;;;;;;;;13.30;26.40;;;;;;5025286;28;19919;-79
2022/03/20 12:13:17;;;;;;;;;;;13.50;26.70;;;;;;5008916;28;19968;-79
2022/03/20 12:15:45;;;;;;;;;;;13.60;25.70;;;;;;5023683;28;20024;-80
2022/03/20 12:18:11;;;;;;;;;;;13.70;26.80;;;;;;5024952;28;20446;-79
2022/03/20 12:20:52;;;;;;;;;;;13.70;26.10;;;;;;5023874;28;20180;-80
2022/03/20 12:23:30;;;;;;;;;;;13.80;26.40;;;;;;5005584;28;19959;-79
2022/03/20 12:25:56;;;;;;;;;;;13.90;25.80;;;;;;5026538;28;20116;-78
2022/03/20 12:28:30;;;;;;;;;;;14.00;26.20;;;;;;5029519;28;19935;-79
2022/03/20 12:30:56;;;;;;;;;;;14.10;25.90;;;;;;5022577;28;20041;-79
2022/03/20 12:33:26;;;;;;;;;;;14.10;26.20;;;;;;5023500;28;20004;-79
2022/03/20 12:35:52;;;;;;;;;;;14.00;25.50;;;;;;5020607;28;19913;-79
2022/03/20 12:38:40;;;;;;;;;;;14.10;26.50;;;;;;5024342;28;19914;-80
2022/03/20 12:41:09;;;;;;;;;;;14.20;25.90;;;;;;5024481;28;19909;-79
2022/03/20 12:43:35;;;;;;;;;;;14.20;25.90;;;;;;5024669;28;19935;-80
2022/03/20 12:46:02;;;;;;;;;;;14.30;25.90;;;;;;5026899;28;20081;-79
2022/03/20 12:48:32;;;;;;;;;;;14.30;25.70;;;;;;5027151;28;19929;-80
2022/03/20 12:51:09;;;;;;;;;;;14.50;26.20;;;;;;5026055;28;19916;-80
2022/03/20 12:53:44;;;;;;;;;;;14.70;25.70;;;;;;5025756;28;19909;-80
2022/03/20 12:58:41;;;;;;;;;;;14.90;25.70;;;;;;5022497;28;19921;-80
2022/03/20 13:01:07;;;;;;;;;;;14.90;25.40;;;;;;5022003;28;19932;-81
2022/03/20 13:03:33;;;;;;;;;;;15.00;25.70;;;;;;5019535;28;19915;-79
2022/03/20 13:05:59;;;;;;;;;;;15.10;25.40;;;;;;5021731;28;20311;-79
2022/03/20 13:08:26;;;;;;;;;;;15.10;25.50;;;;;;5020844;28;19918;-80
2022/03/20 13:10:54;;;;;;;;;;;14.90;25.40;;;;;;5021224;28;20404;-80
2022/03/20 13:13:21;;;;;;;;;;;15.00;25.80;;;;;;5019627;28;20506;-80
2022/03/20 13:15:48;;;;;;;;;;;15.20;25.60;;;;;;5020481;28;19913;-81
2022/03/20 13:18:14;;;;;;;;;;;15.40;25.20;;;;;;5020604;28;19919;-80
2022/03/20 13:20:41;;;;;;;;;;;15.50;25.20;;;;;;5018701;28;20019;-80
2022/03/20 13:23:11;;;;;;;;;;;15.70;25.40;;;;;;5018130;28;19936;-80
2022/03/20 13:25:43;;;;;;;;;;;15.80;25.20;;;;;;5019817;28;19909;-80
2022/03/20 13:28:26;;;;;;;;;;;15.70;24.80;;;;;;5019630;28;19960;-80
2022/03/20 13:30:52;;;;;;;;;;;15.60;25.20;;;;;;5018713;28;20019;-80
2022/03/20 13:33:31;;;;;;;;;;;15.60;25.20;;;;;;5019145;28;19936;-79
2022/03/20 13:35:57;;;;;;;;;;;15.60;25.40;;;;;;5020811;28;20214;-80
2022/03/20 13:38:22;;;;;;;;;;;15.80;25.70;;;;;;5019124;28;19948;-80
2022/03/20 13:40:48;;;;;;;;;;;16.10;25.50;;;;;;5018771;28;20129;-79
2022/03/20 13:43:21;;;;;;;;;;;16.40;25.60;;;;;;5020259;28;19915;-80
2022/03/20 13:45:46;;;;;;;;;;;16.40;24.80;;;;;;5019696;28;20116;-80
2022/03/20 13:48:13;;;;;;;;;;;16.40;24.70;;;;;;5018255;28;19998;-80
2022/03/20 13:50:39;;;;;;;;;;;16.50;24.90;;;;;;5018478;28;19914;-80
2022/03/20 13:53:04;;;;;;;;;;;16.70;25.30;;;;;;5019183;28;19920;-80
2022/03/20 13:55:34;;;;;;;;;;;17.00;25.40;;;;;;5018892;28;20217;-80
2022/03/20 13:58:01;;;;;;;;;;;17.40;24.50;;;;;;5018093;28;20049;-80
2022/03/20 14:00:49;;;;;;;;;;;17.40;24.40;;;;;;5076284;27;19912;-78
2022/03/20 14:03:22;;;;;;;;;;;17.50;24.60;;;;;;5076519;28;19939;-79
2022/03/20 14:05:51;;;;;;;;;;;17.60;24.20;;;;;;5075709;28;19910;-79
2022/03/20 14:08:26;;;;;;;;;;;17.60;25.00;;;;;;5075401;28;19955;-80
2022/03/20 14:11:01;;;;;;;;;;;17.90;24.40;;;;;;5075214;28;20100;-78
2022/03/20 14:13:27;;;;;;;;;;;18.10;24.30;;;;;;5074978;28;20039;-78
2022/03/20 14:16:05;;;;;;;;;;;18.30;24.30;;;;;;5074554;28;19909;-78
2022/03/20 14:18:32;;;;;;;;;;;18.50;24.10;;;;;;5076660;28;19912;-80
2022/03/20 14:21:22;;;;;;;;;;;18.80;24.10;;;;;;5075901;28;20555;-79
2022/03/20 14:24:01;;;;;;;;;;;19.20;23.80;;;;;;5076491;28;19919;-79
2022/03/20 14:26:31;;;;;;;;;;;19.30;23.50;;;;;;5076537;28;20322;-79
2022/03/20 14:40:51;;;;;;;;;;;19.60;22.90;;;;;;5076167;28;19970;-79
2022/03/20 14:43:21;;;;;;;;;;;19.60;23.20;;;;;;5076476;28;19912;-79
2022/03/20 14:45:47;;;;;;;;;;;19.70;23.80;;;;;;5076410;28;19915;-79
2022/03/20 14:48:12;;;;;;;;;;;19.80;22.60;;;;;;5076516;28;19908;-80
2022/03/20 14:50:38;;;;;;;;;;;19.70;22.70;;;;;;5076909;28;19912;-79
2022/03/20 14:53:05;;;;;;;;;;;19.50;22.50;;;;;;5089840;28;19923;-80
2022/03/20 14:55:31;;;;;;;;;;;19.60;23.30;;;;;;5097016;28;19908;-80
2022/03/20 14:57:58;;;;;;;;;;;19.80;22.90;;;;;;5090443;28;19920;-78
2022/03/20 15:00:24;;;;;;;;;;;19.80;22.90;;;;;;5090127;28;19988;-79
2022/03/20 15:02:50;;;;;;;;;;;19.80;22.90;;;;;;5079218;28;20335;-79
2022/03/20 15:05:16;;;;;;;;;;;19.70;23.10;;;;;;5076187;28;19909;-78
2022/03/20 15:11:23;;;;;;;;;;;19.70;22.70;;;;;;5074800;28;19908;-81